»·PEaware :: N2881 KSNA-KSNA

N2881 :: KSNA-KSNA

FLIGHT INFORMATION

Flight Status: Arrived
Operator: Privately registered:
United States
More flights under this callsign
Pilot: Spencer B. (30959)
Aircraft: CIRRUS SR-20
(SR20)
More flights by this aircraft type
Origin: KSNA John Wayne-Orange Co
United States
Destination: KSNA John Wayne-Orange Co
United States
More flights between these airports :: More routes between these airports
Route:
File this flight plan on PilotEdge
Remarks:
Altitude:
(Current/Filed)
0ft
Speed:
(Current/Filed)
0kts
Departed: 01-Dec-20 01:51 PM
Arrived: 01-Dec-20 02:21 PM
Distance/Time
Traveled:
0nm/0:30
Distance/Time
To Go:
Arrived

Flight Plot

Page will automatically refresh every two minutes.


Map Options




Map Legend


Flown Route
Filed Route
Departure Airport
Arrival Airport
Navaid (VOR, NDB)
Fix

Horizontal Profiles

Position Reports

Time Latitude Longitude Heading Altitude Ground
Speed
01-Dec-20 13:35 33.669911 -117.874792 26 59ft 0kts
01-Dec-20 13:36 33.669911 -117.874792 26 59ft 0kts
01-Dec-20 13:37 33.669911 -117.874792 26 59ft 0kts
01-Dec-20 13:38 33.669911 -117.874792 26 59ft 0kts
01-Dec-20 13:39 33.669911 -117.874792 26 59ft 0kts
01-Dec-20 13:40 33.669950 -117.874762 74 59ft 1kts
01-Dec-20 13:41 33.669751 -117.874202 105 59ft 4kts
01-Dec-20 13:42 33.669783 -117.874065 18 59ft 0kts
01-Dec-20 13:43 33.669783 -117.874065 18 59ft 0kts
01-Dec-20 13:44 33.670767 -117.873459 28 59ft 22kts
01-Dec-20 13:45 33.675107 -117.870692 27 59ft 19kts
01-Dec-20 13:46 33.678696 -117.868414 26 59ft 27kts
01-Dec-20 13:47 33.681172 -117.866394 121 59ft 0kts
01-Dec-20 13:48 33.681163 -117.866381 131 59ft 0kts
01-Dec-20 13:49 33.681163 -117.866381 131 59ft 0kts
01-Dec-20 13:50 33.677119 -117.867893 207 59ft 72kts
01-Dec-20 13:51 33.652754 -117.874628 138 774ft 109kts
01-Dec-20 13:52 33.661020 -117.842368 58 1693ft 119kts
01-Dec-20 13:53 33.678135 -117.809994 58 2488ft 123kts
01-Dec-20 13:54 33.694922 -117.781684 56 2871ft 112kts
01-Dec-20 13:55 33.711162 -117.760021 6 3094ft 112kts
01-Dec-20 13:56 33.713587 -117.777352 190 3613ft 117kts
01-Dec-20 13:57 33.684903 -117.762856 93 3626ft 151kts
01-Dec-20 13:58 33.708963 -117.725858 43 3982ft 144kts
01-Dec-20 13:59 33.737868 -117.695848 45 4911ft 111kts
01-Dec-20 14:00 33.762331 -117.668398 33 5537ft 125kts
01-Dec-20 14:01 33.795340 -117.643695 29 5520ft 143kts
01-Dec-20 14:02 33.829833 -117.615827 34 5517ft 145kts
01-Dec-20 14:03 33.864346 -117.604365 325 5548ft 141kts
01-Dec-20 14:04 33.886189 -117.641109 7 5561ft 137kts
01-Dec-20 14:05 33.887810 -117.609338 146 5618ft 146kts
01-Dec-20 14:06 33.855853 -117.598806 173 5589ft 102kts
01-Dec-20 14:07 33.826533 -117.588802 139 5998ft 119kts
01-Dec-20 14:08 33.820270 -117.545836 59 6161ft 125kts
01-Dec-20 14:09 33.846801 -117.545560 301 6089ft 142kts
01-Dec-20 14:10 33.841689 -117.593708 245 5931ft 150kts
01-Dec-20 14:11 33.822983 -117.647449 251 5437ft 161kts
01-Dec-20 14:12 33.805938 -117.701508 246 4549ft 172kts
01-Dec-20 14:13 33.788774 -117.748445 247 4027ft 165kts
01-Dec-20 14:14 33.776594 -117.789339 249 3110ft 141kts
01-Dec-20 14:15 33.761720 -117.813802 205 2151ft 120kts
01-Dec-20 14:16 33.740834 -117.825222 207 1459ft 89kts
01-Dec-20 14:17 33.721942 -117.837085 209 1131ft 86kts
01-Dec-20 14:18 33.704686 -117.848614 208 700ft 81kts
01-Dec-20 14:19 33.688340 -117.858935 207 239ft 72kts
01-Dec-20 14:20 33.675927 -117.866811 207 59ft 34kts
01-Dec-20 14:21 33.674365 -117.868456 338 59ft 0kts
01-Dec-20 14:22 33.674379 -117.868463 335 59ft 0kts
01-Dec-20 14:23 33.675742 -117.870294 235 59ft 14kts
01-Dec-20 14:24 33.676162 -117.871093 183 59ft 0kts

Navigation Log

Ident Type
Flight plan parsing failed, navigation log unavailable